WetterOnline ( https://www.wetteronline.de )

Wetter aktuell Mühldorf

Aktuelles Wetter: Mühldorf am Inn (410m)

6-stündlich | Neueste Meldungen
Ortszeit Temperatur Wetter
Mo, 06.07. 20:00 18.9° C wolkenlos
Mo, 06.07. 14:00 19.3° C bewölkt
Mo, 06.07. 8:00 20.8° C wolkenlos
Mo, 06.07. 2:00 15.9° C wolkenlos
So, 05.07. 20:00 25.8° C wolkenlos
So, 05.07. 14:00 25.7° C leicht bewölkt
So, 05.07. 8:00 19.4° C fast wolkenlos
So, 05.07. 2:00 13.2° C leicht bewölkt
Ortszeit Temperatur Wetter
Mo, 06.07. 20:00 18.9° C wolkenlos
Mo, 06.07. 19:50 18.9° C wolkenlos
Mo, 06.07. 19:40 19.2° C fast wolkenlos
Mo, 06.07. 19:30 19.5° C fast wolkenlos
Mo, 06.07. 19:20 19.5° C fast wolkenlos
Mo, 06.07. 19:10 19.8° C wolkenlos
Mo, 06.07. 19:00 20.5° C fast wolkenlos
Mo, 06.07. 18:30 19.9° C fast wolkenlos
Mo, 06.07. 18:00 20.1° C leicht bewölkt
Mo, 06.07. 17:30 19.6° C leicht bewölkt
Mo, 06.07. 17:00 19.6° C leicht bewölkt
Mo, 06.07. 16:30 18.3° C bewölkt
Ortszeit Relative Feuchte Sichtweite
Mo, 06.07. 20:00 42% >70 km
Mo, 06.07. 14:00 59% >70 km
Mo, 06.07. 8:00 75% >70 km
Mo, 06.07. 2:00 96% 55 km
So, 05.07. 20:00 56% 55 km
So, 05.07. 14:00 46% >70 km
So, 05.07. 8:00 71% 50 km
So, 05.07. 2:00 96% 16 km
Ortszeit Relative Feuchte Sichtweite
Mo, 06.07. 20:00 42% >70 km
Mo, 06.07. 19:50 42% -
Mo, 06.07. 19:40 41% -
Mo, 06.07. 19:30 39% 55 km
Mo, 06.07. 19:20 39% -
Mo, 06.07. 19:10 38% -
Mo, 06.07. 19:00 42% 45 km
Mo, 06.07. 18:30 54% >70 km
Mo, 06.07. 18:00 53% 65 km
Mo, 06.07. 17:30 52% 65 km
Mo, 06.07. 17:00 52% >70 km
Mo, 06.07. 16:30 50% >70 km
Ortszeit Niederschlagsmenge Niederschlagsart
Mo, 06.07. 20:00 0.1 l/m2 in 12 Std. Regen
Mo, 06.07. 14:00 0.1 l/m2 in 6 Std. Regen
Mo, 06.07. 8:00 0.0 l/m2 in 12 Std. -
Mo, 06.07. 2:00 0.0 l/m2 in 6 Std. -
So, 05.07. 20:00 0.0 l/m2 in 12 Std. -
So, 05.07. 14:00 0.0 l/m2 in 6 Std. -
So, 05.07. 8:00 0.0 l/m2 in 12 Std. -
So, 05.07. 2:00 0.0 l/m2 in 6 Std. -
Ortszeit Niederschlagsmenge Niederschlagsart
Mo, 06.07. 20:00 0.0 l/m2 in 1 Std. Regen
Mo, 06.07. 19:50 keine Meldung -
Mo, 06.07. 19:40 keine Meldung -
Mo, 06.07. 19:30 0.0 l/m2 in 1 Std. -
Mo, 06.07. 19:20 keine Meldung -
Mo, 06.07. 19:10 keine Meldung -
Mo, 06.07. 19:00 0.0 l/m2 in 1 Std. -
Mo, 06.07. 18:30 0.0 l/m2 in 1 Std. -
Mo, 06.07. 18:00 0.0 l/m2 in 1 Std. -
Mo, 06.07. 17:30 0.0 l/m2 in 1 Std. -
Mo, 06.07. 17:00 0.0 l/m2 in 1 Std. Regen
Mo, 06.07. 16:30 0.0 l/m2 in 1 Std. -
Ortszeit Stärke Spitze Richtung
km/h Bft. km/h Grad Sektor
Mo, 06.07. 20:00 26 4 48 310° NW
Mo, 06.07. 14:00 22 4 47 300° NW
Mo, 06.07. 8:00 7 2 11 250° W
Mo, 06.07. 2:00 4 1 14 330° NW
So, 05.07. 20:00 9 2 35 280° W
So, 05.07. 14:00 18 3 36 280° W
So, 05.07. 8:00 0 0 7 - -
So, 05.07. 2:00 0 0 7 - -
Ortszeit Stärke Spitze Richtung
km/h Bft. km/h Grad Sektor
Mo, 06.07. 20:00 26 4 48 310° NW
Mo, 06.07. 19:50 26 4 - 310° NW
Mo, 06.07. 19:40 28 4 - 300° NW
Mo, 06.07. 19:30 33 5 48 300° NW
Mo, 06.07. 19:20 33 5 - 300° NW
Mo, 06.07. 19:10 32 5 - 310° NW
Mo, 06.07. 19:00 25 4 36 300° NW
Mo, 06.07. 18:30 20 4 31 260° W
Mo, 06.07. 18:00 20 4 35 260° W
Mo, 06.07. 17:30 22 4 35 270° W
Mo, 06.07. 17:00 19 3 33 260° W
Mo, 06.07. 16:30 22 4 29 260° W
Ortszeit Untergrenze Bedeckung Gattung
total tief tief mittel hoch
Mo, 06.07. 20:00 - 0/8 0/8 - - -
Mo, 06.07. 14:00 1200 m 7/8 7/8 - - -
Mo, 06.07. 8:00 - 0/8 0/8 - - -
Mo, 06.07. 2:00 - 0/8 0/8 - - -
So, 05.07. 20:00 - 0/8 0/8 - - -
So, 05.07. 14:00 2400 m 3/8 3/8 - - -
So, 05.07. 8:00 1800 m 1/8 1/8 - - -
So, 05.07. 2:00 1500 m 2/8 2/8 - - -
Ortszeit Bedeckungsgrad in Achtel und Wolkenuntergrenze
Mo, 06.07. 20:00 keine Wolken
Mo, 06.07. 19:50 keine Wolken
Mo, 06.07. 19:40 1(4200m)
Mo, 06.07. 19:30 1(4200m)
Mo, 06.07. 19:20 1(4200m)
Mo, 06.07. 19:10 keine Wolken
Mo, 06.07. 19:00 1(1800m)
Mo, 06.07. 18:30 2(1800m)
Mo, 06.07. 18:00 3(2400m)
Mo, 06.07. 17:30 2(2100m) 3(3900m)
Mo, 06.07. 17:00 2(2100m) 4(4200m)
Mo, 06.07. 16:30 6(2100m) 7(2400m) 8(3300m)
Ortszeit Luftdruck NN (hPa) Tendenz (hPa in 3 Std.)
Mo, 06.07. 20:00 1017 + 1,9
Mo, 06.07. 14:00 1015 + 1,0
Mo, 06.07. 8:00 1012 - 1,0
Mo, 06.07. 2:00 1015 - 0,1
So, 05.07. 20:00 1013 - 0,9
So, 05.07. 14:00 1016 - 1,5
So, 05.07. 8:00 1019 - 0,1
So, 05.07. 2:00 1020 + 0,3
Ortszeit Luftdruck NN (hPa) Tendenz (hPa in 3 Std.)
Mo, 06.07. 20:00 1017 + 1,9
Mo, 06.07. 19:50 1017 keine Meldung
Mo, 06.07. 19:40 1016 keine Meldung
Mo, 06.07. 19:30 1016 + 0,9
Mo, 06.07. 19:20 1016 keine Meldung
Mo, 06.07. 19:10 1016 keine Meldung
Mo, 06.07. 19:00 1015 + 0,4
Mo, 06.07. 18:30 1015 - 0,3
Mo, 06.07. 18:00 1015 - 0,1
Mo, 06.07. 17:30 1015 - 0,6
Mo, 06.07. 17:00 1015 - 0,3
Mo, 06.07. 16:30 1015 + 0,3
Ortszeit Schneehöhe (cm)
Mo, 06.07. 20:00 -
Mo, 06.07. 14:00 -
Mo, 06.07. 8:00 -
Mo, 06.07. 2:00 -
So, 05.07. 20:00 -
So, 05.07. 14:00 -
So, 05.07. 8:00 -
So, 05.07. 2:00 -
Ortszeit Schneehöhe (cm)
Mo, 06.07. 20:00 -
Mo, 06.07. 19:50 -
Mo, 06.07. 19:40 -
Mo, 06.07. 19:30 -
Mo, 06.07. 19:20 -
Mo, 06.07. 19:10 -
Mo, 06.07. 19:00 -
Mo, 06.07. 18:30 -
Mo, 06.07. 18:00 -
Mo, 06.07. 17:30 -
Mo, 06.07. 17:00 -
Mo, 06.07. 16:30 -
Link zu dieser Seite / Seite empfehlen

Das Wetter in ...